DELTA55 KLAX-KSFO
Flight info
| Callsign | DELTA55 |
|---|---|
| Flight time | 0h 44m |
| Altitude | 30000 |
| Route | VTU HENER OHIGH FLW REDDE LKHRN PANOS ULENY HENCE GILRO |
| Aircraft | A343/H-SDE2E3FGHIJ4J5M1RWXY/LB1D1 |
Departure
| Time | 2026-05-04 13:58 |
|---|---|
| Airport | Los Angeles International Airport (KLAX) |
Arrival
| Time | 2026-05-04 14:42 |
|---|---|
| Airport | San Francisco International Airport (KSFO) |
| Time | Latitude | Longitude | Altitude | Speed | Heading |
|---|---|---|---|---|---|
| 2026-05-04 13:47 | 33.94524 | -118.41161 | 128 ft | 0 kts | 99° |
| 2026-05-04 13:48 | 33.94523 | -118.41160 | 128 ft | 0 kts | 99° |
| 2026-05-04 13:49 | 33.94523 | -118.41159 | 128 ft | 0 kts | 99° |
| 2026-05-04 13:49 | 33.94523 | -118.41158 | 128 ft | 0 kts | 99° |
| 2026-05-04 13:50 | 33.94525 | -118.41181 | 123 ft | 4 kts | 80° |
| 2026-05-04 13:50 | 33.94521 | -118.41201 | 123 ft | 1 kts | 65° |
| 2026-05-04 13:50 | 33.94519 | -118.41206 | 123 ft | 2 kts | 65° |
| 2026-05-04 13:50 | 33.94512 | -118.41225 | 123 ft | 3 kts | 72° |
| 2026-05-04 13:51 | 33.94507 | -118.41246 | 123 ft | 3 kts | 91° |
| 2026-05-04 13:51 | 33.94509 | -118.41267 | 123 ft | 3 kts | 109° |
| 2026-05-04 13:51 | 33.94515 | -118.41284 | 123 ft | 0 kts | 126° |
| 2026-05-04 13:52 | 33.94512 | -118.41282 | 123 ft | 1 kts | 135° |
| 2026-05-04 13:52 | 33.94471 | -118.41264 | 123 ft | 12 kts | 162° |
| 2026-05-04 13:52 | 33.94358 | -118.41235 | 124 ft | 21 kts | 172° |
| 2026-05-04 13:53 | 33.94180 | -118.41206 | 125 ft | 30 kts | 172° |
| 2026-05-04 13:53 | 33.93949 | -118.41170 | 126 ft | 32 kts | 173° |
| 2026-05-04 13:53 | 33.93777 | -118.41113 | 127 ft | 13 kts | 118° |
| 2026-05-04 13:54 | 33.93803 | -118.40755 | 126 ft | 31 kts | 83° |
| 2026-05-04 13:54 | 33.93831 | -118.40463 | 127 ft | 40 kts | 83° |
| 2026-05-04 13:54 | 33.93909 | -118.39718 | 127 ft | 46 kts | 83° |
| 2026-05-04 13:55 | 33.93944 | -118.39345 | 127 ft | 43 kts | 83° |
| 2026-05-04 13:55 | 33.94025 | -118.38544 | 124 ft | 52 kts | 82° |
| 2026-05-04 13:55 | 33.94070 | -118.38129 | 126 ft | 31 kts | 82° |
| 2026-05-04 13:56 | 33.94074 | -118.38060 | 128 ft | 7 kts | 94° |
| 2026-05-04 13:56 | 33.94037 | -118.38010 | 125 ft | 0 kts | 161° |
| 2026-05-04 13:56 | 33.93988 | -118.38057 | 125 ft | 0 kts | 257° |
| 2026-05-04 13:57 | 33.93987 | -118.38063 | 125 ft | 9 kts | 258° |
| 2026-05-04 13:57 | 33.93943 | -118.38438 | 125 ft | 80 kts | 263° |
| 2026-05-04 13:58 | 33.93583 | -118.42057 | 1297 ft | 167 kts | 263° |
| 2026-05-04 13:58 | 33.93303 | -118.44905 | 3000 ft | 173 kts | 264° |
| 2026-05-04 13:58 | 33.93295 | -118.46402 | 3478 ft | 197 kts | 285° |
| 2026-05-04 13:59 | 33.93966 | -118.47938 | 4011 ft | 219 kts | 302° |
| 2026-05-04 13:59 | 33.94827 | -118.49558 | 4644 ft | 239 kts | 301° |
| 2026-05-04 13:59 | 33.96718 | -118.53203 | 5975 ft | 272 kts | 301° |
| 2026-05-04 14:00 | 33.97762 | -118.55172 | 6699 ft | 285 kts | 302° |
| 2026-05-04 14:00 | 33.99980 | -118.59299 | 8308 ft | 303 kts | 301° |
| 2026-05-04 14:00 | 34.01142 | -118.61448 | 9210 ft | 310 kts | 301° |
| 2026-05-04 14:01 | 34.02330 | -118.63634 | 10050 ft | 317 kts | 301° |
| 2026-05-04 14:01 | 34.03585 | -118.65842 | 10890 ft | 322 kts | 303° |
| 2026-05-04 14:01 | 34.06601 | -118.70269 | 11829 ft | 360 kts | 309° |
| 2026-05-04 14:02 | 34.08388 | -118.72477 | 12362 ft | 376 kts | 311° |
| 2026-05-04 14:02 | 34.10323 | -118.74685 | 12941 ft | 390 kts | 313° |
| 2026-05-04 14:02 | 34.12382 | -118.76897 | 13559 ft | 402 kts | 315° |
| 2026-05-04 14:02 | 34.14471 | -118.79039 | 14638 ft | 397 kts | 315° |
| 2026-05-04 14:03 | 34.16615 | -118.81168 | 15441 ft | 402 kts | 315° |
| 2026-05-04 14:03 | 34.18807 | -118.83305 | 16237 ft | 406 kts | 315° |
| 2026-05-04 14:03 | 34.21028 | -118.85439 | 17013 ft | 411 kts | 315° |
| 2026-05-04 14:03 | 34.23288 | -118.87584 | 17760 ft | 416 kts | 315° |
| 2026-05-04 14:04 | 34.27916 | -118.91929 | 19078 ft | 425 kts | 315° |
| 2026-05-04 14:04 | 34.30264 | -118.94116 | 19679 ft | 429 kts | 315° |
| 2026-05-04 14:04 | 34.32614 | -118.96296 | 20258 ft | 433 kts | 315° |
| 2026-05-04 14:05 | 34.37440 | -119.00761 | 21430 ft | 441 kts | 315° |
| 2026-05-04 14:05 | 34.39898 | -119.03029 | 22026 ft | 445 kts | 314° |
| 2026-05-04 14:05 | 34.42373 | -119.05308 | 22602 ft | 449 kts | 314° |
| 2026-05-04 14:06 | 34.44874 | -119.07608 | 23212 ft | 453 kts | 314° |
| 2026-05-04 14:06 | 34.47395 | -119.09928 | 23750 ft | 457 kts | 314° |
| 2026-05-04 14:06 | 34.49938 | -119.12263 | 24255 ft | 461 kts | 314° |
| 2026-05-04 14:06 | 34.52505 | -119.14614 | 24696 ft | 464 kts | 314° |
| 2026-05-04 14:07 | 34.55059 | -119.16955 | 25129 ft | 467 kts | 313° |
| 2026-05-04 14:07 | 34.57659 | -119.19339 | 25544 ft | 471 kts | 313° |
| 2026-05-04 14:07 | 34.60284 | -119.21746 | 25978 ft | 475 kts | 313° |
| 2026-05-04 14:07 | 34.62926 | -119.24171 | 26425 ft | 478 kts | 313° |
| 2026-05-04 14:08 | 34.65584 | -119.26612 | 26788 ft | 482 kts | 312° |
| 2026-05-04 14:08 | 34.68268 | -119.29079 | 27186 ft | 485 kts | 312° |
| 2026-05-04 14:08 | 34.70965 | -119.31562 | 27550 ft | 488 kts | 312° |
| 2026-05-04 14:08 | 34.73681 | -119.34066 | 27903 ft | 492 kts | 312° |
| 2026-05-04 14:09 | 34.79126 | -119.39091 | 28561 ft | 497 kts | 311° |
| 2026-05-04 14:09 | 34.81891 | -119.41647 | 28890 ft | 500 kts | 311° |
| 2026-05-04 14:10 | 34.87417 | -119.46746 | 29822 ft | 500 kts | 311° |
| 2026-05-04 14:10 | 34.90203 | -119.49327 | 29970 ft | 504 kts | 311° |
| 2026-05-04 14:10 | 34.92988 | -119.51912 | 30012 ft | 504 kts | 311° |
| 2026-05-04 14:11 | 34.98527 | -119.57057 | 30038 ft | 504 kts | 311° |
| 2026-05-04 14:11 | 35.06875 | -119.64830 | 30044 ft | 503 kts | 311° |
| 2026-05-04 14:12 | 35.12443 | -119.70022 | 30050 ft | 503 kts | 311° |
| 2026-05-04 14:13 | 35.20743 | -119.77784 | 30059 ft | 503 kts | 311° |
| 2026-05-04 14:13 | 35.23575 | -119.80347 | 29942 ft | 505 kts | 312° |
| 2026-05-04 14:13 | 35.26379 | -119.82923 | 29413 ft | 508 kts | 312° |
| 2026-05-04 14:13 | 35.29153 | -119.85505 | 29863 ft | 502 kts | 312° |
| 2026-05-04 14:14 | 35.31907 | -119.88095 | 29971 ft | 503 kts | 311° |
| 2026-05-04 14:14 | 35.40225 | -119.95972 | 30072 ft | 504 kts | 311° |
| 2026-05-04 14:15 | 35.51281 | -120.06469 | 30066 ft | 504 kts | 312° |
| 2026-05-04 14:16 | 35.59517 | -120.14454 | 29940 ft | 491 kts | 304° |
| 2026-05-04 14:17 | 35.61788 | -120.21598 | 30028 ft | 436 kts | 264° |
| 2026-05-04 14:17 | 35.61401 | -120.25175 | 30061 ft | 427 kts | 254° |
| 2026-05-04 14:17 | 35.62148 | -120.32564 | 30094 ft | 463 kts | 285° |
| 2026-05-04 14:18 | 35.63939 | -120.35950 | 30096 ft | 485 kts | 300° |
| 2026-05-04 14:18 | 35.69696 | -120.40830 | 30098 ft | 529 kts | 329° |
| 2026-05-04 14:19 | 35.77206 | -120.42083 | 30093 ft | 567 kts | 357° |
| 2026-05-04 14:19 | 35.81069 | -120.41154 | 30088 ft | 582 kts | 11° |
| 2026-05-04 14:19 | 35.84828 | -120.39208 | 30079 ft | 590 kts | 22° |
| 2026-05-04 14:19 | 35.88583 | -120.37247 | 30065 ft | 581 kts | 11° |
| 2026-05-04 14:20 | 35.92502 | -120.36422 | 30067 ft | 564 kts | 355° |
| 2026-05-04 14:20 | 35.96332 | -120.36771 | 30060 ft | 543 kts | 340° |
| 2026-05-04 14:20 | 35.99834 | -120.38204 | 30052 ft | 520 kts | 324° |
| 2026-05-04 14:21 | 36.04987 | -120.43682 | 30066 ft | 473 kts | 296° |
| 2026-05-04 14:21 | 36.06943 | -120.46903 | 30055 ft | 483 kts | 302° |
| 2026-05-04 14:21 | 36.09465 | -120.49750 | 30072 ft | 496 kts | 310° |
| 2026-05-04 14:21 | 36.12152 | -120.52438 | 30075 ft | 498 kts | 311° |
| 2026-05-04 14:22 | 36.17583 | -120.57768 | 30073 ft | 498 kts | 311° |
| 2026-05-04 14:22 | 36.23033 | -120.63067 | 30062 ft | 497 kts | 312° |
| 2026-05-04 14:23 | 36.31256 | -120.70894 | 30069 ft | 504 kts | 315° |
| 2026-05-04 14:24 | 36.37006 | -120.75904 | 30083 ft | 505 kts | 316° |
| 2026-05-04 14:24 | 36.42772 | -120.80915 | 30082 ft | 506 kts | 316° |
| 2026-05-04 14:25 | 36.48522 | -120.85958 | 30079 ft | 506 kts | 316° |
| 2026-05-04 14:25 | 36.57047 | -120.93571 | 30076 ft | 505 kts | 316° |
| 2026-05-04 14:26 | 36.62714 | -120.98728 | 30069 ft | 504 kts | 316° |
| 2026-05-04 14:26 | 36.68347 | -121.03929 | 30069 ft | 504 kts | 316° |
| 2026-05-04 14:27 | 36.73961 | -121.09179 | 29753 ft | 506 kts | 316° |
| 2026-05-04 14:27 | 36.76725 | -121.11805 | 29075 ft | 507 kts | 316° |
| 2026-05-04 14:27 | 36.79510 | -121.14514 | 28395 ft | 508 kts | 317° |
| 2026-05-04 14:28 | 36.82277 | -121.17272 | 27754 ft | 510 kts | 317° |
| 2026-05-04 14:28 | 36.85022 | -121.20083 | 27109 ft | 509 kts | 317° |
| 2026-05-04 14:28 | 36.87690 | -121.22888 | 26475 ft | 498 kts | 317° |
| 2026-05-04 14:28 | 36.90283 | -121.25688 | 25856 ft | 487 kts | 317° |
| 2026-05-04 14:29 | 36.95209 | -121.31208 | 24665 ft | 472 kts | 316° |
| 2026-05-04 14:29 | 36.99940 | -121.36761 | 23418 ft | 462 kts | 316° |
| 2026-05-04 14:30 | 37.02232 | -121.39534 | 22569 ft | 452 kts | 316° |
| 2026-05-04 14:30 | 37.04455 | -121.42247 | 21783 ft | 440 kts | 316° |
| 2026-05-04 14:30 | 37.08717 | -121.47497 | 20436 ft | 417 kts | 316° |
| 2026-05-04 14:31 | 37.10760 | -121.50034 | 19685 ft | 410 kts | 316° |
| 2026-05-04 14:31 | 37.14714 | -121.55004 | 18236 ft | 401 kts | 316° |
| 2026-05-04 14:32 | 37.18570 | -121.59978 | 16343 ft | 399 kts | 315° |
| 2026-05-04 14:32 | 37.20508 | -121.62474 | 15672 ft | 393 kts | 315° |
| 2026-05-04 14:32 | 37.22375 | -121.64879 | 15315 ft | 378 kts | 315° |
| 2026-05-04 14:32 | 37.24182 | -121.67202 | 14941 ft | 366 kts | 315° |
| 2026-05-04 14:33 | 37.25932 | -121.69451 | 14573 ft | 355 kts | 315° |
| 2026-05-04 14:33 | 37.27636 | -121.71635 | 14223 ft | 345 kts | 315° |
| 2026-05-04 14:33 | 37.29268 | -121.73727 | 13874 ft | 335 kts | 315° |
| 2026-05-04 14:33 | 37.30877 | -121.75784 | 13477 ft | 326 kts | 315° |
| 2026-05-04 14:34 | 37.32449 | -121.77792 | 13073 ft | 318 kts | 315° |
| 2026-05-04 14:34 | 37.33980 | -121.79746 | 12688 ft | 310 kts | 315° |
| 2026-05-04 14:34 | 37.35473 | -121.81648 | 12300 ft | 302 kts | 315° |
| 2026-05-04 14:34 | 37.36874 | -121.83567 | 11875 ft | 294 kts | 311° |
| 2026-05-04 14:35 | 37.38200 | -121.85632 | 10600 ft | 311 kts | 308° |
| 2026-05-04 14:35 | 37.39553 | -121.87814 | 9325 ft | 322 kts | 307° |
| 2026-05-04 14:35 | 37.40845 | -121.90063 | 8489 ft | 319 kts | 304° |
| 2026-05-04 14:35 | 37.42080 | -121.92351 | 7725 ft | 314 kts | 303° |
| 2026-05-04 14:36 | 37.43213 | -121.94657 | 6984 ft | 307 kts | 296° |
| 2026-05-04 14:36 | 37.44156 | -121.97038 | 6242 ft | 302 kts | 294° |
| 2026-05-04 14:36 | 37.45067 | -121.99394 | 5570 ft | 294 kts | 295° |
| 2026-05-04 14:36 | 37.45964 | -122.01611 | 5286 ft | 274 kts | 295° |
| 2026-05-04 14:37 | 37.46799 | -122.03639 | 5158 ft | 248 kts | 295° |
| 2026-05-04 14:37 | 37.47576 | -122.05523 | 4588 ft | 247 kts | 295° |
| 2026-05-04 14:37 | 37.48381 | -122.07445 | 3828 ft | 249 kts | 298° |
| 2026-05-04 14:37 | 37.49293 | -122.09309 | 3040 ft | 251 kts | 301° |
| 2026-05-04 14:38 | 37.50241 | -122.11136 | 2499 ft | 244 kts | 303° |
| 2026-05-04 14:38 | 37.51162 | -122.12807 | 2249 ft | 226 kts | 303° |
| 2026-05-04 14:38 | 37.52004 | -122.14365 | 2153 ft | 204 kts | 302° |
| 2026-05-04 14:38 | 37.52730 | -122.15775 | 2089 ft | 180 kts | 298° |
| 2026-05-04 14:39 | 37.53352 | -122.17182 | 1744 ft | 190 kts | 297° |
| 2026-05-04 14:39 | 37.53981 | -122.18690 | 1572 ft | 185 kts | 296° |
| 2026-05-04 14:39 | 37.54576 | -122.20130 | 1415 ft | 179 kts | 296° |
| 2026-05-04 14:40 | 37.55729 | -122.22958 | 1552 ft | 186 kts | 295° |
| 2026-05-04 14:40 | 37.56306 | -122.24393 | 1580 ft | 181 kts | 296° |
| 2026-05-04 14:40 | 37.56881 | -122.25774 | 1475 ft | 181 kts | 297° |
| 2026-05-04 14:40 | 37.57497 | -122.27161 | 1387 ft | 181 kts | 298° |
| 2026-05-04 14:41 | 37.58096 | -122.28545 | 1289 ft | 179 kts | 296° |
| 2026-05-04 14:41 | 37.58666 | -122.29921 | 1132 ft | 176 kts | 297° |
| 2026-05-04 14:41 | 37.59817 | -122.32647 | 701 ft | 180 kts | 297° |
| 2026-05-04 14:42 | 37.60969 | -122.35412 | 161 ft | 179 kts | 298° |
| 2026-05-04 14:42 | 37.61540 | -122.36733 | 27 ft | 157 kts | 298° |
| 2026-05-04 14:42 | 37.61887 | -122.37549 | 24 ft | 45 kts | 296° |
| 2026-05-04 14:43 | 37.61985 | -122.37786 | 29 ft | 25 kts | 293° |
| 2026-05-04 14:43 | 37.61951 | -122.37953 | 29 ft | 18 kts | 228° |
| 2026-05-04 14:43 | 37.61866 | -122.38019 | 28 ft | 10 kts | 228° |
| 2026-05-04 14:43 | 37.61833 | -122.38073 | 26 ft | 0 kts | 233° |